sensor_id;sensor_type;location;lat;lon;timestamp;P1;durP1;ratioP1;P2;durP2;ratioP2
10216;SDS011;5152;59.674;16.838;2023-10-13T00:02:09;1.60;;;0.70;;
10216;SDS011;5152;59.674;16.838;2023-10-13T00:04:35;0.93;;;0.60;;
10216;SDS011;5152;59.674;16.838;2023-10-13T00:07:02;2.03;;;0.93;;
10216;SDS011;5152;59.674;16.838;2023-10-13T00:09:35;1.03;;;0.60;;
10216;SDS011;5152;59.674;16.838;2023-10-13T00:12:03;1.23;;;0.50;;
10216;SDS011;5152;59.674;16.838;2023-10-13T00:14:33;1.57;;;0.80;;
10216;SDS011;5152;59.674;16.838;2023-10-13T00:17:00;1.53;;;0.80;;
10216;SDS011;5152;59.674;16.838;2023-10-13T00:19:28;0.87;;;0.60;;
10216;SDS011;5152;59.674;16.838;2023-10-13T00:22:02;1.50;;;0.60;;
10216;SDS011;5152;59.674;16.838;2023-10-13T00:24:35;1.37;;;0.60;;
10216;SDS011;5152;59.674;16.838;2023-10-13T00:27:19;0.93;;;0.70;;
10216;SDS011;5152;59.674;16.838;2023-10-13T00:29:57;0.30;;;0.30;;
10216;SDS011;5152;59.674;16.838;2023-10-13T00:32:47;0.90;;;0.53;;
10216;SDS011;5152;59.674;16.838;2023-10-13T00:35:20;2.17;;;0.63;;
10216;SDS011;5152;59.674;16.838;2023-10-13T00:37:54;0.30;;;0.30;;
10216;SDS011;5152;59.674;16.838;2023-10-13T00:40:23;1.03;;;0.43;;
10216;SDS011;5152;59.674;16.838;2023-10-13T00:43:04;1.47;;;0.53;;
10216;SDS011;5152;59.674;16.838;2023-10-13T00:45:54;1.50;;;0.60;;
10216;SDS011;5152;59.674;16.838;2023-10-13T00:48:22;1.03;;;0.60;;
10216;SDS011;5152;59.674;16.838;2023-10-13T00:50:55;0.57;;;0.57;;
10216;SDS011;5152;59.674;16.838;2023-10-13T00:53:22;1.40;;;0.70;;
10216;SDS011;5152;59.674;16.838;2023-10-13T00:55:51;1.37;;;0.63;;
10216;SDS011;5152;59.674;16.838;2023-10-13T00:58:20;1.80;;;0.60;;
10216;SDS011;5152;59.674;16.838;2023-10-13T01:00:48;1.27;;;0.77;;
10216;SDS011;5152;59.674;16.838;2023-10-13T01:03:21;1.63;;;0.70;;
10216;SDS011;5152;59.674;16.838;2023-10-13T01:05:51;1.20;;;0.50;;
10216;SDS011;5152;59.674;16.838;2023-10-13T01:08:19;4.67;;;1.00;;
10216;SDS011;5152;59.674;16.838;2023-10-13T01:11:00;0.97;;;0.50;;
10216;SDS011;5152;59.674;16.838;2023-10-13T01:13:26;0.80;;;0.43;;
10216;SDS011;5152;59.674;16.838;2023-10-13T01:15:56;2.03;;;0.83;;
10216;SDS011;5152;59.674;16.838;2023-10-13T01:18:23;0.97;;;0.40;;
10216;SDS011;5152;59.674;16.838;2023-10-13T01:20:53;0.57;;;0.43;;
10216;SDS011;5152;59.674;16.838;2023-10-13T01:23:25;0.70;;;0.40;;
10216;SDS011;5152;59.674;16.838;2023-10-13T01:25:53;0.40;;;0.40;;
10216;SDS011;5152;59.674;16.838;2023-10-13T01:28:21;5.13;;;1.07;;
10216;SDS011;5152;59.674;16.838;2023-10-13T01:30:49;0.57;;;0.43;;
10216;SDS011;5152;59.674;16.838;2023-10-13T01:33:15;1.77;;;0.60;;
10216;SDS011;5152;59.674;16.838;2023-10-13T01:35:42;0.47;;;0.43;;
10216;SDS011;5152;59.674;16.838;2023-10-13T01:38:12;1.30;;;0.57;;
10216;SDS011;5152;59.674;16.838;2023-10-13T01:40:41;0.53;;;0.43;;
10216;SDS011;5152;59.674;16.838;2023-10-13T01:43:08;1.20;;;0.50;;
10216;SDS011;5152;59.674;16.838;2023-10-13T01:45:36;1.40;;;0.70;;
10216;SDS011;5152;59.674;16.838;2023-10-13T01:48:04;3.13;;;0.70;;
10216;SDS011;5152;59.674;16.838;2023-10-13T01:50:32;0.60;;;0.33;;
10216;SDS011;5152;59.674;16.838;2023-10-13T01:53:01;0.40;;;0.40;;
10216;SDS011;5152;59.674;16.838;2023-10-13T01:55:37;1.17;;;0.60;;
10216;SDS011;5152;59.674;16.838;2023-10-13T01:58:09;0.43;;;0.43;;
10216;SDS011;5152;59.674;16.838;2023-10-13T02:00:40;3.27;;;0.80;;
10216;SDS011;5152;59.674;16.838;2023-10-13T02:03:07;0.67;;;0.40;;
10216;SDS011;5152;59.674;16.838;2023-10-13T02:05:40;1.37;;;0.70;;
10216;SDS011;5152;59.674;16.838;2023-10-13T02:08:12;0.77;;;0.60;;
10216;SDS011;5152;59.674;16.838;2023-10-13T02:10:43;0.97;;;0.53;;
10216;SDS011;5152;59.674;16.838;2023-10-13T02:13:13;0.40;;;0.30;;
10216;SDS011;5152;59.674;16.838;2023-10-13T02:15:42;1.90;;;0.63;;
10216;SDS011;5152;59.674;16.838;2023-10-13T02:18:11;1.03;;;0.40;;
10216;SDS011;5152;59.674;16.838;2023-10-13T02:20:38;0.93;;;0.50;;
10216;SDS011;5152;59.674;16.838;2023-10-13T02:23:09;0.90;;;0.60;;
10216;SDS011;5152;59.674;16.838;2023-10-13T02:25:36;0.70;;;0.50;;
10216;SDS011;5152;59.674;16.838;2023-10-13T02:28:08;2.30;;;0.80;;
10216;SDS011;5152;59.674;16.838;2023-10-13T02:30:40;0.30;;;0.30;;
10216;SDS011;5152;59.674;16.838;2023-10-13T02:33:10;2.63;;;0.40;;
10216;SDS011;5152;59.674;16.838;2023-10-13T02:35:37;0.87;;;0.43;;
10216;SDS011;5152;59.674;16.838;2023-10-13T02:38:08;3.93;;;0.67;;
10216;SDS011;5152;59.674;16.838;2023-10-13T02:40:37;1.53;;;0.70;;
10216;SDS011;5152;59.674;16.838;2023-10-13T02:43:04;1.40;;;0.60;;
10216;SDS011;5152;59.674;16.838;2023-10-13T02:45:31;1.80;;;0.40;;
10216;SDS011;5152;59.674;16.838;2023-10-13T02:48:02;1.17;;;0.40;;
10216;SDS011;5152;59.674;16.838;2023-10-13T02:50:37;0.33;;;0.33;;
10216;SDS011;5152;59.674;16.838;2023-10-13T02:53:08;5.97;;;0.70;;
10216;SDS011;5152;59.674;16.838;2023-10-13T02:55:37;1.40;;;0.60;;
10216;SDS011;5152;59.674;16.838;2023-10-13T02:58:04;0.43;;;0.43;;
10216;SDS011;5152;59.674;16.838;2023-10-13T03:00:34;1.07;;;0.37;;
10216;SDS011;5152;59.674;16.838;2023-10-13T03:02:59;0.30;;;0.20;;
10216;SDS011;5152;59.674;16.838;2023-10-13T03:05:27;5.93;;;0.77;;
10216;SDS011;5152;59.674;16.838;2023-10-13T03:07:54;0.40;;;0.40;;
10216;SDS011;5152;59.674;16.838;2023-10-13T03:10:23;2.23;;;0.73;;
10216;SDS011;5152;59.674;16.838;2023-10-13T03:12:54;0.70;;;0.40;;
10216;SDS011;5152;59.674;16.838;2023-10-13T03:15:21;0.50;;;0.50;;
10216;SDS011;5152;59.674;16.838;2023-10-13T03:17:54;1.40;;;0.70;;
10216;SDS011;5152;59.674;16.838;2023-10-13T03:20:23;3.70;;;0.80;;
10216;SDS011;5152;59.674;16.838;2023-10-13T03:22:57;0.30;;;0.30;;
10216;SDS011;5152;59.674;16.838;2023-10-13T03:25:24;1.33;;;0.60;;
10216;SDS011;5152;59.674;16.838;2023-10-13T03:27:54;1.10;;;0.60;;
10216;SDS011;5152;59.674;16.838;2023-10-13T03:30:30;2.63;;;1.00;;
10216;SDS011;5152;59.674;16.838;2023-10-13T03:33:01;1.07;;;0.50;;
10216;SDS011;5152;59.674;16.838;2023-10-13T03:35:33;0.73;;;0.60;;
10216;SDS011;5152;59.674;16.838;2023-10-13T03:38:06;1.30;;;0.50;;
10216;SDS011;5152;59.674;16.838;2023-10-13T03:40:41;2.73;;;0.70;;
10216;SDS011;5152;59.674;16.838;2023-10-13T03:43:13;1.27;;;0.80;;
10216;SDS011;5152;59.674;16.838;2023-10-13T03:45:42;7.63;;;1.13;;
10216;SDS011;5152;59.674;16.838;2023-10-13T03:48:13;0.57;;;0.40;;
10216;SDS011;5152;59.674;16.838;2023-10-13T03:50:53;0.50;;;0.40;;
10216;SDS011;5152;59.674;16.838;2023-10-13T03:53:29;0.80;;;0.30;;
10216;SDS011;5152;59.674;16.838;2023-10-13T03:55:59;1.90;;;0.57;;
10216;SDS011;5152;59.674;16.838;2023-10-13T03:58:37;1.77;;;0.67;;
10216;SDS011;5152;59.674;16.838;2023-10-13T04:01:07;0.87;;;0.47;;
10216;SDS011;5152;59.674;16.838;2023-10-13T04:03:37;1.70;;;0.63;;
10216;SDS011;5152;59.674;16.838;2023-10-13T04:06:04;3.57;;;1.03;;
10216;SDS011;5152;59.674;16.838;2023-10-13T04:08:34;1.37;;;0.57;;
10216;SDS011;5152;59.674;16.838;2023-10-13T04:11:35;0.43;;;0.40;;
10216;SDS011;5152;59.674;16.838;2023-10-13T04:14:25;0.43;;;0.40;;
10216;SDS011;5152;59.674;16.838;2023-10-13T04:17:14;2.50;;;0.63;;
10216;SDS011;5152;59.674;16.838;2023-10-13T04:19:41;3.30;;;0.90;;
10216;SDS011;5152;59.674;16.838;2023-10-13T04:22:36;5.87;;;0.80;;
10216;SDS011;5152;59.674;16.838;2023-10-13T04:25:19;1.23;;;0.53;;
10216;SDS011;5152;59.674;16.838;2023-10-13T04:28:04;0.77;;;0.53;;
10216;SDS011;5152;59.674;16.838;2023-10-13T04:30:40;1.40;;;0.70;;
10216;SDS011;5152;59.674;16.838;2023-10-13T04:33:22;4.10;;;1.10;;
10216;SDS011;5152;59.674;16.838;2023-10-13T04:36:01;8.03;;;1.90;;
10216;SDS011;5152;59.674;16.838;2023-10-13T04:38:39;1.10;;;0.50;;
10216;SDS011;5152;59.674;16.838;2023-10-13T04:41:23;5.27;;;1.20;;
10216;SDS011;5152;59.674;16.838;2023-10-13T04:43:56;2.40;;;1.20;;
10216;SDS011;5152;59.674;16.838;2023-10-13T04:46:29;2.27;;;0.83;;
10216;SDS011;5152;59.674;16.838;2023-10-13T04:49:19;2.67;;;0.90;;
10216;SDS011;5152;59.674;16.838;2023-10-13T04:51:53;1.20;;;0.60;;
10216;SDS011;5152;59.674;16.838;2023-10-13T04:54:38;2.07;;;0.60;;
10216;SDS011;5152;59.674;16.838;2023-10-13T04:57:12;1.53;;;0.60;;
10216;SDS011;5152;59.674;16.838;2023-10-13T04:59:59;1.30;;;0.63;;
10216;SDS011;5152;59.674;16.838;2023-10-13T05:02:44;2.37;;;1.07;;
10216;SDS011;5152;59.674;16.838;2023-10-13T05:05:28;1.13;;;0.70;;
10216;SDS011;5152;59.674;16.838;2023-10-13T05:08:31;3.43;;;1.27;;
10216;SDS011;5152;59.674;16.838;2023-10-13T05:11:16;3.03;;;1.20;;
10216;SDS011;5152;59.674;16.838;2023-10-13T05:14:01;0.47;;;0.40;;
10216;SDS011;5152;59.674;16.838;2023-10-13T05:16:46;3.17;;;0.67;;
10216;SDS011;5152;59.674;16.838;2023-10-13T05:19:30;1.10;;;0.70;;
10216;SDS011;5152;59.674;16.838;2023-10-13T05:22:14;1.77;;;0.80;;
10216;SDS011;5152;59.674;16.838;2023-10-13T05:24:58;2.93;;;0.70;;
10216;SDS011;5152;59.674;16.838;2023-10-13T05:27:51;2.87;;;0.70;;
10216;SDS011;5152;59.674;16.838;2023-10-13T05:30:36;1.43;;;0.90;;
10216;SDS011;5152;59.674;16.838;2023-10-13T05:33:21;1.63;;;0.70;;
10216;SDS011;5152;59.674;16.838;2023-10-13T05:36:09;1.30;;;0.87;;
10216;SDS011;5152;59.674;16.838;2023-10-13T05:38:54;1.40;;;0.67;;
10216;SDS011;5152;59.674;16.838;2023-10-13T05:41:38;1.13;;;0.57;;
10216;SDS011;5152;59.674;16.838;2023-10-13T05:44:22;2.53;;;0.83;;
10216;SDS011;5152;59.674;16.838;2023-10-13T05:47:15;1.80;;;0.90;;
10216;SDS011;5152;59.674;16.838;2023-10-13T05:49:59;1.80;;;0.63;;
10216;SDS011;5152;59.674;16.838;2023-10-13T05:52:38;1.77;;;0.90;;
10216;SDS011;5152;59.674;16.838;2023-10-13T05:55:24;2.20;;;1.00;;
10216;SDS011;5152;59.674;16.838;2023-10-13T05:58:08;2.17;;;0.80;;
10216;SDS011;5152;59.674;16.838;2023-10-13T06:00:53;3.43;;;0.73;;
10216;SDS011;5152;59.674;16.838;2023-10-13T06:03:38;2.43;;;0.87;;
10216;SDS011;5152;59.674;16.838;2023-10-13T06:06:23;2.97;;;0.90;;
10216;SDS011;5152;59.674;16.838;2023-10-13T06:09:04;2.80;;;1.33;;
10216;SDS011;5152;59.674;16.838;2023-10-13T06:11:48;1.73;;;0.97;;
10216;SDS011;5152;59.674;16.838;2023-10-13T06:14:32;3.53;;;1.03;;
10216;SDS011;5152;59.674;16.838;2023-10-13T06:17:16;1.07;;;0.70;;
10216;SDS011;5152;59.674;16.838;2023-10-13T06:20:02;3.50;;;1.03;;
10216;SDS011;5152;59.674;16.838;2023-10-13T06:22:47;3.80;;;1.03;;
10216;SDS011;5152;59.674;16.838;2023-10-13T06:25:31;6.07;;;1.10;;
10216;SDS011;5152;59.674;16.838;2023-10-13T06:28:15;2.97;;;1.17;;
10216;SDS011;5152;59.674;16.838;2023-10-13T06:30:59;2.10;;;0.80;;
10216;SDS011;5152;59.674;16.838;2023-10-13T06:33:27;4.00;;;0.93;;
10216;SDS011;5152;59.674;16.838;2023-10-13T06:35:57;2.17;;;0.60;;
10216;SDS011;5152;59.674;16.838;2023-10-13T06:38:24;1.10;;;0.70;;
10216;SDS011;5152;59.674;16.838;2023-10-13T06:40:56;4.93;;;1.07;;
10216;SDS011;5152;59.674;16.838;2023-10-13T06:43:24;2.20;;;0.87;;
10216;SDS011;5152;59.674;16.838;2023-10-13T06:45:50;4.50;;;1.60;;
10216;SDS011;5152;59.674;16.838;2023-10-13T06:48:25;5.33;;;2.90;;
10216;SDS011;5152;59.674;16.838;2023-10-13T06:50:52;2.03;;;1.33;;
10216;SDS011;5152;59.674;16.838;2023-10-13T06:53:22;4.13;;;1.70;;
10216;SDS011;5152;59.674;16.838;2023-10-13T06:55:50;1.63;;;0.80;;
10216;SDS011;5152;59.674;16.838;2023-10-13T06:58:23;1.93;;;0.90;;
10216;SDS011;5152;59.674;16.838;2023-10-13T07:00:50;1.60;;;1.10;;
10216;SDS011;5152;59.674;16.838;2023-10-13T07:03:21;2.90;;;1.30;;
10216;SDS011;5152;59.674;16.838;2023-10-13T07:05:50;8.77;;;3.67;;
10216;SDS011;5152;59.674;16.838;2023-10-13T07:08:17;2.77;;;1.27;;
10216;SDS011;5152;59.674;16.838;2023-10-13T07:10:50;3.23;;;1.53;;
10216;SDS011;5152;59.674;16.838;2023-10-13T07:13:30;4.50;;;2.00;;
10216;SDS011;5152;59.674;16.838;2023-10-13T07:16:01;1.13;;;0.97;;
10216;SDS011;5152;59.674;16.838;2023-10-13T07:18:31;2.80;;;1.77;;
10216;SDS011;5152;59.674;16.838;2023-10-13T07:21:02;1.70;;;0.87;;
10216;SDS011;5152;59.674;16.838;2023-10-13T07:23:35;2.67;;;1.10;;
10216;SDS011;5152;59.674;16.838;2023-10-13T07:26:04;2.23;;;1.37;;
10216;SDS011;5152;59.674;16.838;2023-10-13T07:28:34;2.13;;;1.00;;
10216;SDS011;5152;59.674;16.838;2023-10-13T07:31:08;2.03;;;1.10;;
10216;SDS011;5152;59.674;16.838;2023-10-13T07:33:38;2.17;;;0.90;;
10216;SDS011;5152;59.674;16.838;2023-10-13T07:36:06;1.40;;;0.60;;
10216;SDS011;5152;59.674;16.838;2023-10-13T07:38:40;4.20;;;1.03;;
10216;SDS011;5152;59.674;16.838;2023-10-13T07:41:09;4.13;;;1.73;;
10216;SDS011;5152;59.674;16.838;2023-10-13T07:43:40;2.43;;;0.93;;
10216;SDS011;5152;59.674;16.838;2023-10-13T07:46:07;7.13;;;2.37;;
10216;SDS011;5152;59.674;16.838;2023-10-13T07:48:36;1.53;;;0.90;;
10216;SDS011;5152;59.674;16.838;2023-10-13T07:51:04;4.73;;;1.30;;
10216;SDS011;5152;59.674;16.838;2023-10-13T07:53:35;1.57;;;0.90;;
10216;SDS011;5152;59.674;16.838;2023-10-13T07:56:05;1.43;;;1.00;;
10216;SDS011;5152;59.674;16.838;2023-10-13T07:58:34;1.70;;;0.90;;
10216;SDS011;5152;59.674;16.838;2023-10-13T08:01:12;1.53;;;0.80;;
10216;SDS011;5152;59.674;16.838;2023-10-13T08:03:43;1.73;;;0.90;;
10216;SDS011;5152;59.674;16.838;2023-10-13T08:06:10;8.17;;;1.93;;
10216;SDS011;5152;59.674;16.838;2023-10-13T08:08:53;1.57;;;0.90;;
10216;SDS011;5152;59.674;16.838;2023-10-13T08:11:30;1.37;;;0.93;;
10216;SDS011;5152;59.674;16.838;2023-10-13T08:14:01;5.80;;;1.20;;
10216;SDS011;5152;59.674;16.838;2023-10-13T08:16:37;1.57;;;0.87;;
10216;SDS011;5152;59.674;16.838;2023-10-13T08:19:18;3.93;;;1.27;;
10216;SDS011;5152;59.674;16.838;2023-10-13T08:21:46;3.43;;;1.20;;
10216;SDS011;5152;59.674;16.838;2023-10-13T08:24:16;1.73;;;0.87;;
10216;SDS011;5152;59.674;16.838;2023-10-13T08:26:50;2.37;;;1.00;;
10216;SDS011;5152;59.674;16.838;2023-10-13T08:29:25;5.53;;;1.90;;
10216;SDS011;5152;59.674;16.838;2023-10-13T08:32:11;1.00;;;0.53;;
10216;SDS011;5152;59.674;16.838;2023-10-13T08:34:47;10.77;;;1.80;;
10216;SDS011;5152;59.674;16.838;2023-10-13T08:37:47;5.90;;;1.80;;
10216;SDS011;5152;59.674;16.838;2023-10-13T08:40:22;6.93;;;1.83;;
10216;SDS011;5152;59.674;16.838;2023-10-13T08:43:03;7.50;;;1.80;;
10216;SDS011;5152;59.674;16.838;2023-10-13T08:45:39;2.40;;;0.90;;
10216;SDS011;5152;59.674;16.838;2023-10-13T08:48:24;3.83;;;1.13;;
10216;SDS011;5152;59.674;16.838;2023-10-13T08:50:56;0.77;;;0.70;;
10216;SDS011;5152;59.674;16.838;2023-10-13T08:53:30;2.27;;;0.70;;
10216;SDS011;5152;59.674;16.838;2023-10-13T08:55:59;1.97;;;1.10;;
10216;SDS011;5152;59.674;16.838;2023-10-13T08:58:35;4.93;;;1.30;;
10216;SDS011;5152;59.674;16.838;2023-10-13T09:01:22;2.23;;;0.80;;
10216;SDS011;5152;59.674;16.838;2023-10-13T09:04:11;5.67;;;1.87;;
10216;SDS011;5152;59.674;16.838;2023-10-13T09:06:47;1.00;;;0.70;;
10216;SDS011;5152;59.674;16.838;2023-10-13T09:09:28;2.07;;;1.00;;
10216;SDS011;5152;59.674;16.838;2023-10-13T09:12:01;9.53;;;2.43;;
10216;SDS011;5152;59.674;16.838;2023-10-13T09:14:35;9.33;;;2.23;;
10216;SDS011;5152;59.674;16.838;2023-10-13T09:17:05;6.73;;;1.70;;
10216;SDS011;5152;59.674;16.838;2023-10-13T09:19:59;9.67;;;2.03;;
10216;SDS011;5152;59.674;16.838;2023-10-13T09:22:47;5.70;;;1.60;;
10216;SDS011;5152;59.674;16.838;2023-10-13T09:25:21;11.10;;;2.10;;
10216;SDS011;5152;59.674;16.838;2023-10-13T09:27:49;11.40;;;2.23;;
10216;SDS011;5152;59.674;16.838;2023-10-13T09:30:18;7.60;;;1.50;;
10216;SDS011;5152;59.674;16.838;2023-10-13T09:32:47;12.23;;;2.10;;
10216;SDS011;5152;59.674;16.838;2023-10-13T09:35:17;10.17;;;1.97;;
10216;SDS011;5152;59.674;16.838;2023-10-13T09:37:44;5.53;;;1.73;;
10216;SDS011;5152;59.674;16.838;2023-10-13T09:40:13;6.23;;;1.37;;
10216;SDS011;5152;59.674;16.838;2023-10-13T09:42:55;5.80;;;1.50;;
10216;SDS011;5152;59.674;16.838;2023-10-13T09:45:28;11.97;;;2.07;;
10216;SDS011;5152;59.674;16.838;2023-10-13T09:48:03;7.87;;;1.70;;
10216;SDS011;5152;59.674;16.838;2023-10-13T09:50:35;6.83;;;1.83;;
10216;SDS011;5152;59.674;16.838;2023-10-13T09:53:03;4.07;;;1.23;;
10216;SDS011;5152;59.674;16.838;2023-10-13T09:55:35;6.33;;;1.57;;
10216;SDS011;5152;59.674;16.838;2023-10-13T09:58:05;4.13;;;1.40;;
10216;SDS011;5152;59.674;16.838;2023-10-13T10:00:37;6.03;;;1.30;;
10216;SDS011;5152;59.674;16.838;2023-10-13T10:03:13;4.63;;;1.13;;
10216;SDS011;5152;59.674;16.838;2023-10-13T10:06:04;2.97;;;1.33;;
10216;SDS011;5152;59.674;16.838;2023-10-13T10:08:31;5.70;;;1.93;;
10216;SDS011;5152;59.674;16.838;2023-10-13T10:11:21;2.70;;;0.93;;
10216;SDS011;5152;59.674;16.838;2023-10-13T10:13:53;2.60;;;1.40;;
10216;SDS011;5152;59.674;16.838;2023-10-13T10:16:28;13.80;;;2.43;;
10216;SDS011;5152;59.674;16.838;2023-10-13T10:19:02;3.97;;;1.30;;
10216;SDS011;5152;59.674;16.838;2023-10-13T10:21:33;4.47;;;1.67;;
10216;SDS011;5152;59.674;16.838;2023-10-13T10:24:00;14.83;;;2.60;;
10216;SDS011;5152;59.674;16.838;2023-10-13T10:26:38;3.57;;;1.60;;
10216;SDS011;5152;59.674;16.838;2023-10-13T10:29:17;4.07;;;1.37;;
10216;SDS011;5152;59.674;16.838;2023-10-13T10:31:43;8.43;;;2.03;;
10216;SDS011;5152;59.674;16.838;2023-10-13T10:34:13;11.67;;;2.13;;
10216;SDS011;5152;59.674;16.838;2023-10-13T10:36:44;7.83;;;2.33;;
10216;SDS011;5152;59.674;16.838;2023-10-13T10:39:13;9.30;;;2.13;;
10216;SDS011;5152;59.674;16.838;2023-10-13T10:41:42;3.30;;;1.50;;
10216;SDS011;5152;59.674;16.838;2023-10-13T10:44:17;10.37;;;2.43;;
10216;SDS011;5152;59.674;16.838;2023-10-13T10:46:47;9.20;;;2.03;;
10216;SDS011;5152;59.674;16.838;2023-10-13T10:49:23;9.30;;;2.23;;
10216;SDS011;5152;59.674;16.838;2023-10-13T10:51:57;11.30;;;2.60;;
10216;SDS011;5152;59.674;16.838;2023-10-13T10:54:29;7.53;;;2.23;;
10216;SDS011;5152;59.674;16.838;2023-10-13T10:56:57;2.77;;;1.40;;
10216;SDS011;5152;59.674;16.838;2023-10-13T10:59:36;6.70;;;1.77;;
10216;SDS011;5152;59.674;16.838;2023-10-13T11:02:03;9.10;;;2.00;;
10216;SDS011;5152;59.674;16.838;2023-10-13T11:04:33;10.30;;;2.60;;
10216;SDS011;5152;59.674;16.838;2023-10-13T11:07:00;12.20;;;2.57;;
10216;SDS011;5152;59.674;16.838;2023-10-13T11:09:28;16.80;;;3.37;;
10216;SDS011;5152;59.674;16.838;2023-10-13T11:12:09;18.73;;;2.93;;
10216;SDS011;5152;59.674;16.838;2023-10-13T11:14:40;6.20;;;2.43;;
10216;SDS011;5152;59.674;16.838;2023-10-13T11:17:08;12.40;;;2.87;;
10216;SDS011;5152;59.674;16.838;2023-10-13T11:19:47;10.87;;;2.23;;
10216;SDS011;5152;59.674;16.838;2023-10-13T11:22:14;9.93;;;3.13;;
10216;SDS011;5152;59.674;16.838;2023-10-13T11:24:57;10.53;;;2.40;;
10216;SDS011;5152;59.674;16.838;2023-10-13T11:27:28;12.47;;;2.90;;
10216;SDS011;5152;59.674;16.838;2023-10-13T11:30:09;9.67;;;2.80;;
10216;SDS011;5152;59.674;16.838;2023-10-13T11:32:40;14.77;;;3.23;;
10216;SDS011;5152;59.674;16.838;2023-10-13T11:35:09;9.00;;;2.77;;
10216;SDS011;5152;59.674;16.838;2023-10-13T11:37:45;7.33;;;2.23;;
10216;SDS011;5152;59.674;16.838;2023-10-13T11:40:21;12.07;;;3.27;;
10216;SDS011;5152;59.674;16.838;2023-10-13T11:43:08;7.67;;;1.70;;
10216;SDS011;5152;59.674;16.838;2023-10-13T11:45:39;7.73;;;2.10;;
10216;SDS011;5152;59.674;16.838;2023-10-13T11:48:17;12.87;;;2.73;;
10216;SDS011;5152;59.674;16.838;2023-10-13T11:51:00;8.37;;;2.63;;
10216;SDS011;5152;59.674;16.838;2023-10-13T11:53:32;10.57;;;3.00;;
10216;SDS011;5152;59.674;16.838;2023-10-13T11:55:59;7.80;;;1.83;;
10216;SDS011;5152;59.674;16.838;2023-10-13T11:58:27;11.47;;;2.50;;
10216;SDS011;5152;59.674;16.838;2023-10-13T12:00:54;9.60;;;2.50;;
10216;SDS011;5152;59.674;16.838;2023-10-13T12:03:33;6.97;;;1.40;;
10216;SDS011;5152;59.674;16.838;2023-10-13T12:06:21;12.10;;;3.03;;
10216;SDS011;5152;59.674;16.838;2023-10-13T12:08:58;10.30;;;2.27;;
10216;SDS011;5152;59.674;16.838;2023-10-13T12:11:37;10.77;;;2.37;;
10216;SDS011;5152;59.674;16.838;2023-10-13T12:14:06;16.00;;;3.20;;
10216;SDS011;5152;59.674;16.838;2023-10-13T12:16:44;12.23;;;2.30;;
10216;SDS011;5152;59.674;16.838;2023-10-13T12:19:14;13.50;;;2.83;;
10216;SDS011;5152;59.674;16.838;2023-10-13T12:21:43;11.50;;;2.63;;
10216;SDS011;5152;59.674;16.838;2023-10-13T12:24:12;15.50;;;2.40;;
10216;SDS011;5152;59.674;16.838;2023-10-13T12:26:48;9.27;;;2.30;;
10216;SDS011;5152;59.674;16.838;2023-10-13T12:29:21;12.97;;;2.80;;
10216;SDS011;5152;59.674;16.838;2023-10-13T12:31:53;10.83;;;2.70;;
10216;SDS011;5152;59.674;16.838;2023-10-13T12:34:33;10.37;;;2.47;;
10216;SDS011;5152;59.674;16.838;2023-10-13T12:37:23;8.90;;;1.83;;
10216;SDS011;5152;59.674;16.838;2023-10-13T12:40:04;11.93;;;2.53;;
10216;SDS011;5152;59.674;16.838;2023-10-13T12:42:49;10.47;;;2.17;;
10216;SDS011;5152;59.674;16.838;2023-10-13T12:45:37;12.87;;;2.67;;
10216;SDS011;5152;59.674;16.838;2023-10-13T12:48:22;13.53;;;2.80;;
10216;SDS011;5152;59.674;16.838;2023-10-13T12:51:06;12.90;;;2.77;;
10216;SDS011;5152;59.674;16.838;2023-10-13T12:53:46;12.80;;;2.53;;
10216;SDS011;5152;59.674;16.838;2023-10-13T12:56:14;11.40;;;2.57;;
10216;SDS011;5152;59.674;16.838;2023-10-13T12:58:41;12.50;;;2.63;;
10216;SDS011;5152;59.674;16.838;2023-10-13T13:01:16;8.47;;;2.67;;
10216;SDS011;5152;59.674;16.838;2023-10-13T13:03:45;13.30;;;3.07;;
10216;SDS011;5152;59.674;16.838;2023-10-13T13:06:15;9.37;;;2.53;;
10216;SDS011;5152;59.674;16.838;2023-10-13T13:08:42;10.77;;;2.40;;
10216;SDS011;5152;59.674;16.838;2023-10-13T13:11:13;8.03;;;1.73;;
10216;SDS011;5152;59.674;16.838;2023-10-13T13:13:39;14.53;;;2.73;;
10216;SDS011;5152;59.674;16.838;2023-10-13T13:16:06;12.20;;;2.37;;
10216;SDS011;5152;59.674;16.838;2023-10-13T13:18:34;11.53;;;2.73;;
10216;SDS011;5152;59.674;16.838;2023-10-13T13:21:01;16.10;;;2.93;;
10216;SDS011;5152;59.674;16.838;2023-10-13T13:23:31;11.97;;;2.70;;
10216;SDS011;5152;59.674;16.838;2023-10-13T13:25:59;12.40;;;2.70;;
10216;SDS011;5152;59.674;16.838;2023-10-13T13:28:28;11.00;;;2.20;;
10216;SDS011;5152;59.674;16.838;2023-10-13T13:31:02;8.50;;;2.37;;
10216;SDS011;5152;59.674;16.838;2023-10-13T13:33:33;9.60;;;2.37;;
10216;SDS011;5152;59.674;16.838;2023-10-13T13:36:04;13.53;;;2.47;;
10216;SDS011;5152;59.674;16.838;2023-10-13T13:38:31;7.13;;;1.77;;
10216;SDS011;5152;59.674;16.838;2023-10-13T13:40:58;13.93;;;2.50;;
10216;SDS011;5152;59.674;16.838;2023-10-13T13:43:28;5.67;;;2.00;;
10216;SDS011;5152;59.674;16.838;2023-10-13T13:46:02;10.57;;;2.50;;
10216;SDS011;5152;59.674;16.838;2023-10-13T13:48:34;6.30;;;2.03;;
10216;SDS011;5152;59.674;16.838;2023-10-13T13:51:03;13.03;;;2.57;;
10216;SDS011;5152;59.674;16.838;2023-10-13T13:53:31;13.50;;;2.80;;
10216;SDS011;5152;59.674;16.838;2023-10-13T13:56:00;7.33;;;2.13;;
10216;SDS011;5152;59.674;16.838;2023-10-13T13:58:29;9.33;;;2.47;;
10216;SDS011;5152;59.674;16.838;2023-10-13T14:00:59;8.73;;;2.50;;
10216;SDS011;5152;59.674;16.838;2023-10-13T14:03:36;5.33;;;1.80;;
10216;SDS011;5152;59.674;16.838;2023-10-13T14:06:10;5.80;;;1.57;;
10216;SDS011;5152;59.674;16.838;2023-10-13T14:08:42;10.13;;;2.87;;
10216;SDS011;5152;59.674;16.838;2023-10-13T14:11:09;9.63;;;2.07;;
10216;SDS011;5152;59.674;16.838;2023-10-13T14:13:48;8.03;;;2.13;;
10216;SDS011;5152;59.674;16.838;2023-10-13T14:16:14;7.00;;;2.23;;
10216;SDS011;5152;59.674;16.838;2023-10-13T14:18:45;12.27;;;2.63;;
10216;SDS011;5152;59.674;16.838;2023-10-13T14:21:12;10.10;;;2.37;;
10216;SDS011;5152;59.674;16.838;2023-10-13T14:23:43;11.57;;;2.83;;
10216;SDS011;5152;59.674;16.838;2023-10-13T14:26:12;10.87;;;2.13;;
10216;SDS011;5152;59.674;16.838;2023-10-13T14:28:39;10.37;;;2.70;;
10216;SDS011;5152;59.674;16.838;2023-10-13T14:31:17;8.30;;;2.20;;
10216;SDS011;5152;59.674;16.838;2023-10-13T14:33:45;5.87;;;2.00;;
10216;SDS011;5152;59.674;16.838;2023-10-13T14:36:13;7.87;;;1.93;;
10216;SDS011;5152;59.674;16.838;2023-10-13T14:38:45;9.43;;;2.13;;
10216;SDS011;5152;59.674;16.838;2023-10-13T14:41:15;7.67;;;1.73;;
10216;SDS011;5152;59.674;16.838;2023-10-13T14:43:43;16.33;;;2.73;;
10216;SDS011;5152;59.674;16.838;2023-10-13T14:46:13;13.63;;;2.90;;
10216;SDS011;5152;59.674;16.838;2023-10-13T14:48:42;5.60;;;2.17;;
10216;SDS011;5152;59.674;16.838;2023-10-13T14:51:10;8.63;;;1.90;;
10216;SDS011;5152;59.674;16.838;2023-10-13T14:53:38;7.93;;;2.00;;
10216;SDS011;5152;59.674;16.838;2023-10-13T14:56:09;9.23;;;2.37;;
10216;SDS011;5152;59.674;16.838;2023-10-13T14:58:36;13.03;;;2.60;;
10216;SDS011;5152;59.674;16.838;2023-10-13T15:01:10;6.40;;;2.03;;
10216;SDS011;5152;59.674;16.838;2023-10-13T15:03:38;4.73;;;1.70;;
10216;SDS011;5152;59.674;16.838;2023-10-13T15:06:07;10.23;;;2.37;;
10216;SDS011;5152;59.674;16.838;2023-10-13T15:08:34;15.37;;;2.77;;
10216;SDS011;5152;59.674;16.838;2023-10-13T15:11:07;11.17;;;2.93;;
10216;SDS011;5152;59.674;16.838;2023-10-13T15:13:37;6.47;;;2.50;;
10216;SDS011;5152;59.674;16.838;2023-10-13T15:16:12;7.73;;;2.30;;
10216;SDS011;5152;59.674;16.838;2023-10-13T15:18:39;12.00;;;2.53;;
10216;SDS011;5152;59.674;16.838;2023-10-13T15:21:08;12.47;;;2.33;;
10216;SDS011;5152;59.674;16.838;2023-10-13T15:23:34;12.20;;;2.23;;
10216;SDS011;5152;59.674;16.838;2023-10-13T15:26:07;9.67;;;2.80;;